sensor_id;sensor_type;location;lat;lon;timestamp;temperature;humidity
67890;DHT22;54685;52.082;5.426;2023-11-19T00:00:11;13.20;99.90
67890;DHT22;54685;52.082;5.426;2023-11-19T00:02:40;13.30;99.90
67890;DHT22;54685;52.082;5.426;2023-11-19T00:05:09;13.30;99.90
67890;DHT22;54685;52.082;5.426;2023-11-19T00:07:37;13.20;99.90
67890;DHT22;54685;52.082;5.426;2023-11-19T00:10:13;13.20;99.90
67890;DHT22;54685;52.082;5.426;2023-11-19T00:12:45;13.20;99.90
67890;DHT22;54685;52.082;5.426;2023-11-19T00:15:14;13.20;99.90
67890;DHT22;54685;52.082;5.426;2023-11-19T00:17:42;13.20;99.90
67890;DHT22;54685;52.082;5.426;2023-11-19T00:20:20;13.20;99.90
67890;DHT22;54685;52.082;5.426;2023-11-19T00:22:48;13.20;99.90
67890;DHT22;54685;52.082;5.426;2023-11-19T00:25:20;13.20;99.90
67890;DHT22;54685;52.082;5.426;2023-11-19T00:27:48;13.20;99.90
67890;DHT22;54685;52.082;5.426;2023-11-19T00:30:15;13.20;99.90
67890;DHT22;54685;52.082;5.426;2023-11-19T00:32:43;13.20;99.90
67890;DHT22;54685;52.082;5.426;2023-11-19T00:35:10;13.20;99.90
67890;DHT22;54685;52.082;5.426;2023-11-19T00:37:37;13.20;99.90
67890;DHT22;54685;52.082;5.426;2023-11-19T00:40:05;13.20;99.90
67890;DHT22;54685;52.082;5.426;2023-11-19T00:42:33;13.20;99.90
67890;DHT22;54685;52.082;5.426;2023-11-19T00:45:00;13.30;99.90
67890;DHT22;54685;52.082;5.426;2023-11-19T00:47:28;13.20;99.90
67890;DHT22;54685;52.082;5.426;2023-11-19T00:49:58;13.20;99.90
67890;DHT22;54685;52.082;5.426;2023-11-19T00:52:25;13.20;99.90
67890;DHT22;54685;52.082;5.426;2023-11-19T00:54:53;13.20;99.90
67890;DHT22;54685;52.082;5.426;2023-11-19T00:57:20;13.20;99.90
67890;DHT22;54685;52.082;5.426;2023-11-19T00:59:47;13.30;99.90
67890;DHT22;54685;52.082;5.426;2023-11-19T01:02:14;13.20;99.90
67890;DHT22;54685;52.082;5.426;2023-11-19T01:04:42;13.20;99.90
67890;DHT22;54685;52.082;5.426;2023-11-19T01:07:09;13.20;99.90
67890;DHT22;54685;52.082;5.426;2023-11-19T01:09:42;13.20;99.90
67890;DHT22;54685;52.082;5.426;2023-11-19T01:12:09;13.20;99.90
67890;DHT22;54685;52.082;5.426;2023-11-19T01:14:38;13.20;99.90
67890;DHT22;54685;52.082;5.426;2023-11-19T01:17:05;13.20;99.90
67890;DHT22;54685;52.082;5.426;2023-11-19T01:19:37;13.20;99.90
67890;DHT22;54685;52.082;5.426;2023-11-19T01:22:04;13.30;99.90
67890;DHT22;54685;52.082;5.426;2023-11-19T01:24:31;13.30;99.90
67890;DHT22;54685;52.082;5.426;2023-11-19T01:26:58;13.20;99.90
67890;DHT22;54685;52.082;5.426;2023-11-19T01:29:27;13.20;99.90
67890;DHT22;54685;52.082;5.426;2023-11-19T01:31:56;13.20;99.90
67890;DHT22;54685;52.082;5.426;2023-11-19T01:34:23;13.20;99.90
67890;DHT22;54685;52.082;5.426;2023-11-19T01:36:50;13.30;99.90
67890;DHT22;54685;52.082;5.426;2023-11-19T01:39:18;13.30;99.90
67890;DHT22;54685;52.082;5.426;2023-11-19T01:41:47;13.20;99.90
67890;DHT22;54685;52.082;5.426;2023-11-19T01:44:14;13.20;99.90
67890;DHT22;54685;52.082;5.426;2023-11-19T01:46:43;13.20;99.90
67890;DHT22;54685;52.082;5.426;2023-11-19T01:49:11;13.20;99.90
67890;DHT22;54685;52.082;5.426;2023-11-19T01:51:43;13.20;99.90
67890;DHT22;54685;52.082;5.426;2023-11-19T01:54:10;13.30;99.90
67890;DHT22;54685;52.082;5.426;2023-11-19T01:56:38;13.20;99.90
67890;DHT22;54685;52.082;5.426;2023-11-19T01:59:09;13.20;99.90
67890;DHT22;54685;52.082;5.426;2023-11-19T02:01:37;13.20;99.90
67890;DHT22;54685;52.082;5.426;2023-11-19T02:04:08;13.20;99.90
67890;DHT22;54685;52.082;5.426;2023-11-19T02:06:40;13.20;99.90
67890;DHT22;54685;52.082;5.426;2023-11-19T02:09:09;13.20;99.90
67890;DHT22;54685;52.082;5.426;2023-11-19T02:11:39;13.10;99.90
67890;DHT22;54685;52.082;5.426;2023-11-19T02:14:07;13.10;99.90
67890;DHT22;54685;52.082;5.426;2023-11-19T02:16:34;13.00;99.90
67890;DHT22;54685;52.082;5.426;2023-11-19T02:19:01;13.00;99.90
67890;DHT22;54685;52.082;5.426;2023-11-19T02:21:29;13.00;99.90
67890;DHT22;54685;52.082;5.426;2023-11-19T02:23:56;12.90;99.90
67890;DHT22;54685;52.082;5.426;2023-11-19T02:26:50;12.90;99.90
67890;DHT22;54685;52.082;5.426;2023-11-19T02:29:19;12.90;99.90
67890;DHT22;54685;52.082;5.426;2023-11-19T02:31:46;12.80;99.90
67890;DHT22;54685;52.082;5.426;2023-11-19T02:34:14;12.70;99.90
67890;DHT22;54685;52.082;5.426;2023-11-19T02:36:41;12.70;99.90
67890;DHT22;54685;52.082;5.426;2023-11-19T02:39:08;12.70;99.90
67890;DHT22;54685;52.082;5.426;2023-11-19T02:41:38;12.70;99.90
67890;DHT22;54685;52.082;5.426;2023-11-19T02:44:07;12.60;99.90
67890;DHT22;54685;52.082;5.426;2023-11-19T02:46:34;12.70;99.90
67890;DHT22;54685;52.082;5.426;2023-11-19T02:49:03;12.60;99.90
67890;DHT22;54685;52.082;5.426;2023-11-19T02:51:30;12.60;99.90
67890;DHT22;54685;52.082;5.426;2023-11-19T02:53:58;12.50;99.90
67890;DHT22;54685;52.082;5.426;2023-11-19T02:56:25;12.50;99.90
67890;DHT22;54685;52.082;5.426;2023-11-19T02:58:55;12.40;99.90
67890;DHT22;54685;52.082;5.426;2023-11-19T03:01:25;12.40;99.90
67890;DHT22;54685;52.082;5.426;2023-11-19T03:04:01;12.40;99.90
67890;DHT22;54685;52.082;5.426;2023-11-19T03:06:30;12.40;99.90
67890;DHT22;54685;52.082;5.426;2023-11-19T03:08:57;12.40;99.90
67890;DHT22;54685;52.082;5.426;2023-11-19T03:11:26;12.30;99.90
67890;DHT22;54685;52.082;5.426;2023-11-19T03:13:53;12.30;99.90
67890;DHT22;54685;52.082;5.426;2023-11-19T03:16:21;12.30;99.90
67890;DHT22;54685;52.082;5.426;2023-11-19T03:18:48;12.20;99.90
67890;DHT22;54685;52.082;5.426;2023-11-19T03:21:16;12.20;99.90
67890;DHT22;54685;52.082;5.426;2023-11-19T03:23:42;12.20;99.90
67890;DHT22;54685;52.082;5.426;2023-11-19T03:26:13;12.20;99.90
67890;DHT22;54685;52.082;5.426;2023-11-19T03:28:40;12.10;99.90
67890;DHT22;54685;52.082;5.426;2023-11-19T03:31:07;12.10;99.90
67890;DHT22;54685;52.082;5.426;2023-11-19T03:33:36;12.10;99.90
67890;DHT22;54685;52.082;5.426;2023-11-19T03:36:05;12.00;99.90
67890;DHT22;54685;52.082;5.426;2023-11-19T03:38:32;12.00;99.90
67890;DHT22;54685;52.082;5.426;2023-11-19T03:40:59;11.90;99.90
67890;DHT22;54685;52.082;5.426;2023-11-19T03:43:26;11.90;99.90
67890;DHT22;54685;52.082;5.426;2023-11-19T03:45:54;11.90;99.90
67890;DHT22;54685;52.082;5.426;2023-11-19T03:48:21;11.90;99.90
67890;DHT22;54685;52.082;5.426;2023-11-19T03:50:49;11.80;99.90
67890;DHT22;54685;52.082;5.426;2023-11-19T03:53:16;11.80;99.90
67890;DHT22;54685;52.082;5.426;2023-11-19T03:55:43;11.80;99.90
67890;DHT22;54685;52.082;5.426;2023-11-19T03:58:10;11.80;99.90
67890;DHT22;54685;52.082;5.426;2023-11-19T04:00:42;11.80;99.90
67890;DHT22;54685;52.082;5.426;2023-11-19T04:03:09;11.70;99.90
67890;DHT22;54685;52.082;5.426;2023-11-19T04:05:36;11.70;99.90
67890;DHT22;54685;52.082;5.426;2023-11-19T04:08:04;11.70;99.90
67890;DHT22;54685;52.082;5.426;2023-11-19T04:10:32;11.70;99.90
67890;DHT22;54685;52.082;5.426;2023-11-19T04:12:59;11.70;99.90
67890;DHT22;54685;52.082;5.426;2023-11-19T04:15:26;11.70;99.90
67890;DHT22;54685;52.082;5.426;2023-11-19T04:17:53;11.70;99.90
67890;DHT22;54685;52.082;5.426;2023-11-19T04:20:21;11.70;99.90
67890;DHT22;54685;52.082;5.426;2023-11-19T04:22:50;11.70;99.90
67890;DHT22;54685;52.082;5.426;2023-11-19T04:25:17;11.70;99.90
67890;DHT22;54685;52.082;5.426;2023-11-19T04:27:46;11.70;99.90
67890;DHT22;54685;52.082;5.426;2023-11-19T04:30:14;11.60;99.90
67890;DHT22;54685;52.082;5.426;2023-11-19T04:32:42;11.60;99.90
67890;DHT22;54685;52.082;5.426;2023-11-19T04:35:09;11.60;99.90
67890;DHT22;54685;52.082;5.426;2023-11-19T04:37:37;11.60;99.90
67890;DHT22;54685;52.082;5.426;2023-11-19T04:40:04;11.60;99.90
67890;DHT22;54685;52.082;5.426;2023-11-19T04:42:31;11.60;99.90
67890;DHT22;54685;52.082;5.426;2023-11-19T04:44:59;11.50;99.90
67890;DHT22;54685;52.082;5.426;2023-11-19T04:47:26;11.50;99.90
67890;DHT22;54685;52.082;5.426;2023-11-19T04:49:53;11.50;99.90
67890;DHT22;54685;52.082;5.426;2023-11-19T04:52:20;11.50;99.90
67890;DHT22;54685;52.082;5.426;2023-11-19T04:54:47;11.60;99.90
67890;DHT22;54685;52.082;5.426;2023-11-19T04:57:14;11.50;99.90
67890;DHT22;54685;52.082;5.426;2023-11-19T04:59:42;11.60;99.90
67890;DHT22;54685;52.082;5.426;2023-11-19T05:02:09;11.50;99.90
67890;DHT22;54685;52.082;5.426;2023-11-19T05:04:36;11.50;99.90
67890;DHT22;54685;52.082;5.426;2023-11-19T05:07:06;11.50;99.90
67890;DHT22;54685;52.082;5.426;2023-11-19T05:09:34;11.40;99.90
67890;DHT22;54685;52.082;5.426;2023-11-19T05:12:02;11.50;99.90
67890;DHT22;54685;52.082;5.426;2023-11-19T05:14:29;11.40;99.90
67890;DHT22;54685;52.082;5.426;2023-11-19T05:16:56;11.40;99.90
67890;DHT22;54685;52.082;5.426;2023-11-19T05:19:23;11.40;99.90
67890;DHT22;54685;52.082;5.426;2023-11-19T05:21:53;11.40;99.90
67890;DHT22;54685;52.082;5.426;2023-11-19T05:24:21;11.40;99.90
67890;DHT22;54685;52.082;5.426;2023-11-19T05:26:48;11.30;99.90
67890;DHT22;54685;52.082;5.426;2023-11-19T05:29:14;11.40;99.90
67890;DHT22;54685;52.082;5.426;2023-11-19T05:31:42;11.40;99.90
67890;DHT22;54685;52.082;5.426;2023-11-19T05:34:11;11.40;99.90
67890;DHT22;54685;52.082;5.426;2023-11-19T05:36:38;11.30;99.90
67890;DHT22;54685;52.082;5.426;2023-11-19T05:39:06;11.30;99.90
67890;DHT22;54685;52.082;5.426;2023-11-19T05:41:33;11.30;99.90
67890;DHT22;54685;52.082;5.426;2023-11-19T05:44:00;11.30;99.90
67890;DHT22;54685;52.082;5.426;2023-11-19T05:46:28;11.30;99.90
67890;DHT22;54685;52.082;5.426;2023-11-19T05:48:55;11.30;99.90
67890;DHT22;54685;52.082;5.426;2023-11-19T05:51:22;11.30;99.90
67890;DHT22;54685;52.082;5.426;2023-11-19T05:53:50;11.30;99.90
67890;DHT22;54685;52.082;5.426;2023-11-19T05:56:17;11.30;99.90
67890;DHT22;54685;52.082;5.426;2023-11-19T05:58:48;11.20;99.90
67890;DHT22;54685;52.082;5.426;2023-11-19T06:01:18;11.30;99.90
67890;DHT22;54685;52.082;5.426;2023-11-19T06:03:48;11.30;99.90
67890;DHT22;54685;52.082;5.426;2023-11-19T06:06:17;11.30;99.90
67890;DHT22;54685;52.082;5.426;2023-11-19T06:08:44;11.30;99.90
67890;DHT22;54685;52.082;5.426;2023-11-19T06:11:11;11.30;99.90
67890;DHT22;54685;52.082;5.426;2023-11-19T06:13:41;11.20;99.90
67890;DHT22;54685;52.082;5.426;2023-11-19T06:16:12;11.30;99.90
67890;DHT22;54685;52.082;5.426;2023-11-19T06:18:39;11.30;99.90
67890;DHT22;54685;52.082;5.426;2023-11-19T06:21:08;11.20;99.90
67890;DHT22;54685;52.082;5.426;2023-11-19T06:23:35;11.20;99.90
67890;DHT22;54685;52.082;5.426;2023-11-19T06:26:02;11.20;99.90
67890;DHT22;54685;52.082;5.426;2023-11-19T06:28:29;11.20;99.90
67890;DHT22;54685;52.082;5.426;2023-11-19T06:30:56;11.20;99.90
67890;DHT22;54685;52.082;5.426;2023-11-19T06:33:24;11.20;99.90
67890;DHT22;54685;52.082;5.426;2023-11-19T06:35:52;11.20;99.90
67890;DHT22;54685;52.082;5.426;2023-11-19T06:38:19;11.20;99.90
67890;DHT22;54685;52.082;5.426;2023-11-19T06:40:46;11.20;99.90
67890;DHT22;54685;52.082;5.426;2023-11-19T06:43:17;11.20;99.90
67890;DHT22;54685;52.082;5.426;2023-11-19T06:45:45;11.20;99.90
67890;DHT22;54685;52.082;5.426;2023-11-19T06:48:12;11.20;99.90
67890;DHT22;54685;52.082;5.426;2023-11-19T06:50:39;11.20;99.90
67890;DHT22;54685;52.082;5.426;2023-11-19T06:53:06;11.20;99.90
67890;DHT22;54685;52.082;5.426;2023-11-19T06:55:37;11.20;99.90
67890;DHT22;54685;52.082;5.426;2023-11-19T06:58:05;11.10;99.90
67890;DHT22;54685;52.082;5.426;2023-11-19T07:00:33;11.10;99.90
67890;DHT22;54685;52.082;5.426;2023-11-19T07:03:03;11.10;99.90
67890;DHT22;54685;52.082;5.426;2023-11-19T07:05:30;11.10;99.90
67890;DHT22;54685;52.082;5.426;2023-11-19T07:07:57;11.10;99.90
67890;DHT22;54685;52.082;5.426;2023-11-19T07:10:27;11.10;99.90
67890;DHT22;54685;52.082;5.426;2023-11-19T07:12:57;11.00;99.90
67890;DHT22;54685;52.082;5.426;2023-11-19T07:15:24;11.10;99.90
67890;DHT22;54685;52.082;5.426;2023-11-19T07:17:53;11.10;99.90
67890;DHT22;54685;52.082;5.426;2023-11-19T07:20:24;11.00;99.90
67890;DHT22;54685;52.082;5.426;2023-11-19T07:22:51;11.00;99.90
67890;DHT22;54685;52.082;5.426;2023-11-19T07:25:21;11.00;99.90
67890;DHT22;54685;52.082;5.426;2023-11-19T07:27:48;11.00;99.90
67890;DHT22;54685;52.082;5.426;2023-11-19T07:30:15;11.10;99.90
67890;DHT22;54685;52.082;5.426;2023-11-19T07:32:43;11.10;99.90
67890;DHT22;54685;52.082;5.426;2023-11-19T07:35:10;11.10;99.90
67890;DHT22;54685;52.082;5.426;2023-11-19T07:37:37;11.20;99.90
67890;DHT22;54685;52.082;5.426;2023-11-19T07:40:04;11.10;99.90
67890;DHT22;54685;52.082;5.426;2023-11-19T07:42:31;11.10;99.90
67890;DHT22;54685;52.082;5.426;2023-11-19T07:44:58;11.10;99.90
67890;DHT22;54685;52.082;5.426;2023-11-19T07:47:26;11.10;99.90
67890;DHT22;54685;52.082;5.426;2023-11-19T07:49:58;11.20;99.90
67890;DHT22;54685;52.082;5.426;2023-11-19T07:52:25;11.20;99.90
67890;DHT22;54685;52.082;5.426;2023-11-19T07:54:53;11.20;99.90
67890;DHT22;54685;52.082;5.426;2023-11-19T07:57:20;11.30;99.90
67890;DHT22;54685;52.082;5.426;2023-11-19T07:59:47;11.30;99.90
67890;DHT22;54685;52.082;5.426;2023-11-19T08:02:14;11.30;99.90
67890;DHT22;54685;52.082;5.426;2023-11-19T08:04:41;11.30;99.90
67890;DHT22;54685;52.082;5.426;2023-11-19T08:07:11;11.30;99.90
67890;DHT22;54685;52.082;5.426;2023-11-19T08:09:39;11.30;99.90
67890;DHT22;54685;52.082;5.426;2023-11-19T08:12:08;11.40;99.90
67890;DHT22;54685;52.082;5.426;2023-11-19T08:14:35;11.40;99.90
67890;DHT22;54685;52.082;5.426;2023-11-19T08:17:06;11.50;99.90
67890;DHT22;54685;52.082;5.426;2023-11-19T08:19:33;11.50;99.90
67890;DHT22;54685;52.082;5.426;2023-11-19T08:22:03;11.50;99.90
67890;DHT22;54685;52.082;5.426;2023-11-19T08:24:29;11.50;99.90
67890;DHT22;54685;52.082;5.426;2023-11-19T08:26:56;11.50;99.90
67890;DHT22;54685;52.082;5.426;2023-11-19T08:29:27;11.50;99.90
67890;DHT22;54685;52.082;5.426;2023-11-19T08:31:54;11.50;99.90
67890;DHT22;54685;52.082;5.426;2023-11-19T08:34:21;11.60;99.90
67890;DHT22;54685;52.082;5.426;2023-11-19T08:36:50;11.60;99.90
67890;DHT22;54685;52.082;5.426;2023-11-19T08:39:20;11.60;99.90
67890;DHT22;54685;52.082;5.426;2023-11-19T08:41:49;11.60;99.90
67890;DHT22;54685;52.082;5.426;2023-11-19T08:44:17;11.60;99.90
67890;DHT22;54685;52.082;5.426;2023-11-19T08:46:49;11.70;99.90
67890;DHT22;54685;52.082;5.426;2023-11-19T08:49:17;11.70;99.90
67890;DHT22;54685;52.082;5.426;2023-11-19T08:51:44;11.70;99.90
67890;DHT22;54685;52.082;5.426;2023-11-19T08:54:12;11.70;99.90
67890;DHT22;54685;52.082;5.426;2023-11-19T08:56:39;11.70;99.90
67890;DHT22;54685;52.082;5.426;2023-11-19T08:59:10;11.70;99.90
67890;DHT22;54685;52.082;5.426;2023-11-19T09:01:37;11.80;99.90
67890;DHT22;54685;52.082;5.426;2023-11-19T09:04:04;11.80;99.90
67890;DHT22;54685;52.082;5.426;2023-11-19T09:06:31;11.90;99.90
67890;DHT22;54685;52.082;5.426;2023-11-19T09:08:58;11.90;99.90
67890;DHT22;54685;52.082;5.426;2023-11-19T09:11:29;12.00;99.90
67890;DHT22;54685;52.082;5.426;2023-11-19T09:13:57;11.90;99.90
67890;DHT22;54685;52.082;5.426;2023-11-19T09:16:24;12.00;99.90
67890;DHT22;54685;52.082;5.426;2023-11-19T09:18:51;12.00;99.90
67890;DHT22;54685;52.082;5.426;2023-11-19T09:21:17;12.10;99.90
67890;DHT22;54685;52.082;5.426;2023-11-19T09:23:44;12.10;99.90
67890;DHT22;54685;52.082;5.426;2023-11-19T09:26:11;12.10;99.90
67890;DHT22;54685;52.082;5.426;2023-11-19T09:28:39;12.10;99.90
67890;DHT22;54685;52.082;5.426;2023-11-19T09:33:44;12.10;99.90
67890;DHT22;54685;52.082;5.426;2023-11-19T09:36:13;12.10;99.90
67890;DHT22;54685;52.082;5.426;2023-11-19T09:38:44;12.10;99.90
67890;DHT22;54685;52.082;5.426;2023-11-19T09:41:11;12.10;99.90
67890;DHT22;54685;52.082;5.426;2023-11-19T09:43:42;12.10;99.90
67890;DHT22;54685;52.082;5.426;2023-11-19T09:46:10;12.20;99.90
67890;DHT22;54685;52.082;5.426;2023-11-19T09:48:41;12.30;99.90
67890;DHT22;54685;52.082;5.426;2023-11-19T09:51:10;12.30;99.90
67890;DHT22;54685;52.082;5.426;2023-11-19T09:53:37;12.40;99.90
67890;DHT22;54685;52.082;5.426;2023-11-19T09:56:05;12.40;99.90
67890;DHT22;54685;52.082;5.426;2023-11-19T09:58:33;12.40;99.90
67890;DHT22;54685;52.082;5.426;2023-11-19T10:01:00;12.50;99.90
67890;DHT22;54685;52.082;5.426;2023-11-19T10:03:35;12.50;99.90
67890;DHT22;54685;52.082;5.426;2023-11-19T10:06:07;12.50;99.90
67890;DHT22;54685;52.082;5.426;2023-11-19T10:08:39;12.50;99.90
67890;DHT22;54685;52.082;5.426;2023-11-19T10:11:07;12.60;99.90
67890;DHT22;54685;52.082;5.426;2023-11-19T10:13:37;12.50;99.90
67890;DHT22;54685;52.082;5.426;2023-11-19T10:16:12;12.60;99.90
67890;DHT22;54685;52.082;5.426;2023-11-19T10:18:49;12.60;99.90
67890;DHT22;54685;52.082;5.426;2023-11-19T10:21:19;12.70;99.90
67890;DHT22;54685;52.082;5.426;2023-11-19T10:23:54;12.80;99.90
67890;DHT22;54685;52.082;5.426;2023-11-19T10:26:23;12.90;99.90
67890;DHT22;54685;52.082;5.426;2023-11-19T10:28:50;13.10;99.90
67890;DHT22;54685;52.082;5.426;2023-11-19T10:31:18;13.30;99.90
67890;DHT22;54685;52.082;5.426;2023-11-19T10:33:46;13.70;99.90
67890;DHT22;54685;52.082;5.426;2023-11-19T10:36:13;14.00;99.90
67890;DHT22;54685;52.082;5.426;2023-11-19T10:38:52;14.10;99.90
67890;DHT22;54685;52.082;5.426;2023-11-19T10:41:45;14.00;99.90
67890;DHT22;54685;52.082;5.426;2023-11-19T10:44:12;13.90;99.90
67890;DHT22;54685;52.082;5.426;2023-11-19T10:46:41;13.90;99.90
67890;DHT22;54685;52.082;5.426;2023-11-19T10:49:09;14.00;99.90
67890;DHT22;54685;52.082;5.426;2023-11-19T10:51:36;14.30;99.90
67890;DHT22;54685;52.082;5.426;2023-11-19T10:54:05;14.60;99.90
67890;DHT22;54685;52.082;5.426;2023-11-19T10:56:35;14.70;99.90
67890;DHT22;54685;52.082;5.426;2023-11-19T10:59:02;14.90;99.90
67890;DHT22;54685;52.082;5.426;2023-11-19T11:01:48;15.10;99.90
67890;DHT22;54685;52.082;5.426;2023-11-19T11:04:23;15.40;99.90
67890;DHT22;54685;52.082;5.426;2023-11-19T11:06:51;15.90;99.90
67890;DHT22;54685;52.082;5.426;2023-11-19T11:09:26;15.90;99.90
67890;DHT22;54685;52.082;5.426;2023-11-19T11:11:54;16.20;99.90
67890;DHT22;54685;52.082;5.426;2023-11-19T11:14:22;16.50;99.90
67890;DHT22;54685;52.082;5.426;2023-11-19T11:16:51;16.30;99.90
67890;DHT22;54685;52.082;5.426;2023-11-19T11:19:20;16.20;99.90
67890;DHT22;54685;52.082;5.426;2023-11-19T11:21:51;15.80;99.90
67890;DHT22;54685;52.082;5.426;2023-11-19T11:24:35;15.50;99.90
67890;DHT22;54685;52.082;5.426;2023-11-19T11:35:55;14.30;99.90
67890;DHT22;54685;52.082;5.426;2023-11-19T11:38:28;14.10;99.90
67890;DHT22;54685;52.082;5.426;2023-11-19T11:41:22;13.90;99.90
67890;DHT22;54685;52.082;5.426;2023-11-19T11:43:55;13.90;99.90
67890;DHT22;54685;52.082;5.426;2023-11-19T11:49:06;14.20;99.90
67890;DHT22;54685;52.082;5.426;2023-11-19T11:57:09;14.40;99.90
67890;DHT22;54685;52.082;5.426;2023-11-19T11:59:45;14.20;99.90
67890;DHT22;54685;52.082;5.426;2023-11-19T12:02:14;14.10;99.90
67890;DHT22;54685;52.082;5.426;2023-11-19T12:04:47;14.00;99.90
67890;DHT22;54685;52.082;5.426;2023-11-19T12:07:16;14.00;99.90
67890;DHT22;54685;52.082;5.426;2023-11-19T12:09:51;13.90;99.90
67890;DHT22;54685;52.082;5.426;2023-11-19T12:12:21;13.90;99.90
67890;DHT22;54685;52.082;5.426;2023-11-19T12:15:05;13.90;99.90
67890;DHT22;54685;52.082;5.426;2023-11-19T12:20:04;13.90;99.90
67890;DHT22;54685;52.082;5.426;2023-11-19T12:22:37;13.90;99.90
67890;DHT22;54685;52.082;5.426;2023-11-19T12:25:06;13.90;99.90
67890;DHT22;54685;52.082;5.426;2023-11-19T12:27:37;13.90;99.90
67890;DHT22;54685;52.082;5.426;2023-11-19T12:30:04;13.80;99.90
67890;DHT22;54685;52.082;5.426;2023-11-19T12:32:42;13.80;99.90
67890;DHT22;54685;52.082;5.426;2023-11-19T12:35:10;13.70;99.90
67890;DHT22;54685;52.082;5.426;2023-11-19T12:37:44;13.70;99.90
67890;DHT22;54685;52.082;5.426;2023-11-19T12:42:49;13.60;99.90
67890;DHT22;54685;52.082;5.426;2023-11-19T12:45:19;13.70;99.90
67890;DHT22;54685;52.082;5.426;2023-11-19T12:47:47;13.70;99.90
67890;DHT22;54685;52.082;5.426;2023-11-19T12:50:17;13.70;99.90
67890;DHT22;54685;52.082;5.426;2023-11-19T12:52:57;13.80;99.90
67890;DHT22;54685;52.082;5.426;2023-11-19T12:55:29;13.80;99.90
67890;DHT22;54685;52.082;5.426;2023-11-19T12:57:57;13.70;99.90
67890;DHT22;54685;52.082;5.426;2023-11-19T13:00:27;13.70;99.90
67890;DHT22;54685;52.082;5.426;2023-11-19T13:02:56;13.80;99.90
67890;DHT22;54685;52.082;5.426;2023-11-19T13:05:30;13.80;99.90
67890;DHT22;54685;52.082;5.426;2023-11-19T13:08:00;13.70;99.90
67890;DHT22;54685;52.082;5.426;2023-11-19T13:10:29;13.70;99.90
67890;DHT22;54685;52.082;5.426;2023-11-19T13:13:11;13.70;99.90
67890;DHT22;54685;52.082;5.426;2023-11-19T13:15:40;13.60;99.90
67890;DHT22;54685;52.082;5.426;2023-11-19T13:18:07;13.60;99.90
67890;DHT22;54685;52.082;5.426;2023-11-19T13:20:34;13.60;99.90
67890;DHT22;54685;52.082;5.426;2023-11-19T13:23:03;13.60;99.90
67890;DHT22;54685;52.082;5.426;2023-11-19T13:25:30;13.50;99.90
67890;DHT22;54685;52.082;5.426;2023-11-19T13:27:58;13.50;99.90
67890;DHT22;54685;52.082;5.426;2023-11-19T13:30:25;13.40;99.90
67890;DHT22;54685;52.082;5.426;2023-11-19T13:32:53;13.30;99.90
67890;DHT22;54685;52.082;5.426;2023-11-19T13:35:25;13.20;99.90
67890;DHT22;54685;52.082;5.426;2023-11-19T13:37:54;13.20;99.90
67890;DHT22;54685;52.082;5.426;2023-11-19T13:40:21;13.10;99.90
67890;DHT22;54685;52.082;5.426;2023-11-19T13:42:49;13.00;99.90
67890;DHT22;54685;52.082;5.426;2023-11-19T13:45:16;12.90;99.90
67890;DHT22;54685;52.082;5.426;2023-11-19T13:47:46;12.80;99.90
67890;DHT22;54685;52.082;5.426;2023-11-19T13:50:16;12.70;99.90
67890;DHT22;54685;52.082;5.426;2023-11-19T13:52:46;12.70;99.90
67890;DHT22;54685;52.082;5.426;2023-11-19T13:55:15;12.60;99.90
67890;DHT22;54685;52.082;5.426;2023-11-19T13:57:42;12.60;99.90
67890;DHT22;54685;52.082;5.426;2023-11-19T14:00:11;12.60;99.90
67890;DHT22;54685;52.082;5.426;2023-11-19T14:02:49;12.60;99.90
67890;DHT22;54685;52.082;5.426;2023-11-19T14:05:17;12.60;99.90
67890;DHT22;54685;52.082;5.426;2023-11-19T14:08:07;12.60;99.90
67890;DHT22;54685;52.082;5.426;2023-11-19T14:10:51;12.60;99.90
67890;DHT22;54685;52.082;5.426;2023-11-19T14:13:19;12.50;99.90
67890;DHT22;54685;52.082;5.426;2023-11-19T14:15:45;12.50;99.90
67890;DHT22;54685;52.082;5.426;2023-11-19T14:18:16;12.50;99.90
67890;DHT22;54685;52.082;5.426;2023-11-19T14:20:43;12.50;99.90
67890;DHT22;54685;52.082;5.426;2023-11-19T14:23:13;12.50;99.90
67890;DHT22;54685;52.082;5.426;2023-11-19T14:25:40;12.50;99.90
67890;DHT22;54685;52.082;5.426;2023-11-19T14:28:07;12.50;99.90
67890;DHT22;54685;52.082;5.426;2023-11-19T14:30:34;12.50;99.90
67890;DHT22;54685;52.082;5.426;2023-11-19T14:33:02;12.50;99.90
67890;DHT22;54685;52.082;5.426;2023-11-19T14:35:30;12.50;99.90
67890;DHT22;54685;52.082;5.426;2023-11-19T14:37:57;12.50;99.90
67890;DHT22;54685;52.082;5.426;2023-11-19T14:40:24;12.50;99.90
67890;DHT22;54685;52.082;5.426;2023-11-19T14:42:54;12.50;99.90
67890;DHT22;54685;52.082;5.426;2023-11-19T14:45:21;12.60;99.90
67890;DHT22;54685;52.082;5.426;2023-11-19T14:47:49;12.60;99.90
67890;DHT22;54685;52.082;5.426;2023-11-19T14:50:16;12.60;99.90
67890;DHT22;54685;52.082;5.426;2023-11-19T14:52:43;12.60;99.90
67890;DHT22;54685;52.082;5.426;2023-11-19T14:55:10;12.60;99.90
67890;DHT22;54685;52.082;5.426;2023-11-19T14:57:38;12.60;99.90
67890;DHT22;54685;52.082;5.426;2023-11-19T15:00:06;12.60;99.90
67890;DHT22;54685;52.082;5.426;2023-11-19T15:02:40;12.70;99.90
67890;DHT22;54685;52.082;5.426;2023-11-19T15:05:08;12.60;99.90
67890;DHT22;54685;52.082;5.426;2023-11-19T15:07:39;12.60;99.90
67890;DHT22;54685;52.082;5.426;2023-11-19T15:10:07;12.60;99.90
67890;DHT22;54685;52.082;5.426;2023-11-19T15:12:38;12.60;99.90
67890;DHT22;54685;52.082;5.426;2023-11-19T15:15:10;12.60;99.90
67890;DHT22;54685;52.082;5.426;2023-11-19T15:17:40;12.60;99.90
67890;DHT22;54685;52.082;5.426;2023-11-19T15:20:07;12.60;99.90
67890;DHT22;54685;52.082;5.426;2023-11-19T15:22:34;12.70;99.90
67890;DHT22;54685;52.082;5.426;2023-11-19T15:25:01;12.70;99.90
67890;DHT22;54685;52.082;5.426;2023-11-19T15:27:29;12.60;99.90
67890;DHT22;54685;52.082;5.426;2023-11-19T15:29:59;12.70;99.90
67890;DHT22;54685;52.082;5.426;2023-11-19T15:32:26;12.70;99.90
67890;DHT22;54685;52.082;5.426;2023-11-19T15:34:53;12.70;99.90
67890;DHT22;54685;52.082;5.426;2023-11-19T15:37:20;12.60;99.90
67890;DHT22;54685;52.082;5.426;2023-11-19T15:39:47;12.60;99.90
67890;DHT22;54685;52.082;5.426;2023-11-19T15:42:15;12.60;99.90
67890;DHT22;54685;52.082;5.426;2023-11-19T15:44:42;12.60;99.90
67890;DHT22;54685;52.082;5.426;2023-11-19T15:47:10;12.60;99.90
67890;DHT22;54685;52.082;5.426;2023-11-19T15:49:40;12.60;99.90
67890;DHT22;54685;52.082;5.426;2023-11-19T15:52:07;12.60;99.90
67890;DHT22;54685;52.082;5.426;2023-11-19T15:54:34;12.70;99.90
67890;DHT22;54685;52.082;5.426;2023-11-19T15:57:01;12.80;99.90
67890;DHT22;54685;52.082;5.426;2023-11-19T15:59:27;12.70;99.90
67890;DHT22;54685;52.082;5.426;2023-11-19T16:01:57;12.70;99.90
67890;DHT22;54685;52.082;5.426;2023-11-19T16:04:24;12.80;99.90